createdAt,value
2018-02-20T00:02:00.368Z,43.95
2018-02-20T00:04:27.895Z,44.67
2018-02-20T00:06:56.242Z,46.53
2018-02-20T00:09:23.778Z,42.58
2018-02-20T00:11:51.309Z,40.63
2018-02-20T00:14:19.635Z,42.83
2018-02-20T00:16:47.178Z,44.72
2018-02-20T00:19:14.712Z,42.08
2018-02-20T00:21:42.241Z,40.80
2018-02-20T00:24:09.774Z,43.65
2018-02-20T00:26:37.347Z,44.45
2018-02-20T00:29:04.913Z,38.22
2018-02-20T00:31:32.468Z,44.40
2018-02-20T00:34:00.028Z,41.63
2018-02-20T00:36:27.563Z,45.72
2018-02-20T00:38:55.109Z,42.40
2018-02-20T00:41:22.651Z,44.22
2018-02-20T00:43:50.363Z,39.97
2018-02-20T00:46:17.899Z,43.70
2018-02-20T00:48:45.437Z,42.47
2018-02-20T00:51:13.043Z,45.70
2018-02-20T00:53:40.578Z,42.30
2018-02-20T00:56:08.164Z,42.60
2018-02-20T00:58:35.772Z,41.13
2018-02-20T01:01:04.087Z,41.67
2018-02-20T01:03:31.652Z,41.72
2018-02-20T01:05:59.187Z,40.65
2018-02-20T01:08:27.489Z,38.58
2018-02-20T01:10:55.027Z,44.13
2018-02-20T01:13:23.345Z,43.83
2018-02-20T01:15:51.199Z,39.80
2018-02-20T01:18:18.806Z,41.60
2018-02-20T01:20:46.346Z,38.97
2018-02-20T01:23:13.891Z,37.50
2018-02-20T01:25:41.432Z,42.35
2018-02-20T01:28:08.993Z,47.40
2018-02-20T01:30:36.518Z,39.13
2018-02-20T01:33:04.059Z,40.92
2018-02-20T01:35:31.664Z,38.50
2018-02-20T01:37:59.199Z,38.58
2018-02-20T01:40:26.770Z,42.22
2018-02-20T01:42:54.376Z,39.53
2018-02-20T01:45:21.901Z,45.05
2018-02-20T01:47:49.434Z,41.80
2018-02-20T01:50:17.747Z,43.45
2018-02-20T01:52:45.313Z,47.45
2018-02-20T01:55:12.846Z,45.60
2018-02-20T01:57:41.134Z,41.45
2018-02-20T02:00:09.439Z,45.65
2018-02-20T02:02:37.104Z,43.40
2018-02-20T02:05:04.668Z,43.95
2018-02-20T02:07:32.209Z,48.42
2018-02-20T02:10:00.505Z,46.08
2018-02-20T02:12:28.072Z,45.53
2018-02-20T02:14:56.387Z,46.85
2018-02-20T02:17:23.954Z,46.97
2018-02-20T02:19:51.502Z,48.38
2018-02-20T02:22:19.057Z,47.22
2018-02-20T02:24:46.598Z,47.25
2018-02-20T02:27:14.897Z,42.85
2018-02-20T02:29:42.467Z,48.08
2018-02-20T02:32:10.004Z,47.33
2018-02-20T02:34:37.562Z,48.53
2018-02-20T02:37:05.101Z,44.83
2018-02-20T02:39:32.644Z,47.35
2018-02-20T02:42:00.220Z,45.97
2018-02-20T02:44:27.767Z,47.65
2018-02-20T02:46:55.410Z,47.33
2018-02-20T02:49:23.721Z,49.10
2018-02-20T02:51:51.261Z,45.45
2018-02-20T02:54:19.967Z,46.45
2018-02-20T02:56:47.503Z,43.78
2018-02-20T02:59:15.043Z,47.88
2018-02-20T03:01:42.591Z,47.28
2018-02-20T03:04:10.106Z,48.03
2018-02-20T03:06:38.454Z,47.13
2018-02-20T03:09:06.072Z,47.03
2018-02-20T03:11:33.614Z,44.03
2018-02-20T03:14:01.975Z,49.67
2018-02-20T03:16:29.518Z,44.00
2018-02-20T03:18:57.081Z,45.08
2018-02-20T03:21:24.666Z,45.08
2018-02-20T03:23:52.202Z,41.85
2018-02-20T03:26:19.814Z,44.53
2018-02-20T03:28:47.460Z,40.45
2018-02-20T03:31:15.028Z,44.45
2018-02-20T03:33:43.496Z,42.35
2018-02-20T03:36:11.047Z,43.40
2018-02-20T03:38:38.578Z,44.78
2018-02-20T03:41:06.872Z,43.40
2018-02-20T03:43:35.200Z,45.33
2018-02-20T03:46:02.745Z,44.28
2018-02-20T03:48:30.286Z,44.05
2018-02-20T03:50:58.607Z,44.70
2018-02-20T03:53:26.140Z,42.20
2018-02-20T03:55:53.694Z,44.70
2018-02-20T03:58:22.007Z,44.15
2018-02-20T04:00:49.533Z,42.00
2018-02-20T04:03:17.846Z,42.97
2018-02-20T04:05:45.404Z,41.47
2018-02-20T04:08:12.957Z,41.85
2018-02-20T04:10:41.266Z,44.50
2018-02-20T04:13:08.807Z,42.55
2018-02-20T04:15:37.125Z,45.95
2018-02-20T04:18:04.697Z,43.05
2018-02-20T04:20:32.636Z,47.92
2018-02-20T04:23:00.173Z,50.22
2018-02-20T04:25:27.711Z,46.37
2018-02-20T04:27:55.264Z,47.72
2018-02-20T04:30:22.823Z,45.78
2018-02-20T04:32:50.422Z,41.22
2018-02-20T04:35:18.209Z,45.40
2018-02-20T04:37:46.505Z,48.92
2018-02-20T04:40:14.809Z,48.15
2018-02-20T04:42:42.427Z,52.78
2018-02-20T04:45:09.987Z,49.85
2018-02-20T04:47:37.518Z,55.53
2018-02-20T04:50:05.054Z,47.30
2018-02-20T04:52:33.386Z,48.90
2018-02-20T04:55:00.924Z,48.50
2018-02-20T04:57:28.880Z,47.28
2018-02-20T04:59:56.471Z,50.85
2018-02-20T05:02:24.006Z,47.13
2018-02-20T05:04:51.660Z,47.97
2018-02-20T05:07:19.969Z,47.00
2018-02-20T05:09:47.532Z,51.33
2018-02-20T05:12:15.080Z,44.30
2018-02-20T05:14:43.515Z,50.40
2018-02-20T05:17:11.065Z,44.65
2018-02-20T05:19:38.602Z,44.75
2018-02-20T05:22:06.973Z,41.67
2018-02-20T05:24:35.282Z,40.92
2018-02-20T05:27:02.907Z,41.35
2018-02-20T05:29:30.465Z,45.65
2018-02-20T05:31:58.007Z,43.05
2018-02-20T05:34:25.672Z,43.97
2018-02-20T05:36:53.215Z,42.05
2018-02-20T05:39:20.740Z,40.00
2018-02-20T05:41:48.281Z,42.85
2018-02-20T05:44:15.830Z,40.05
2018-02-20T05:46:43.396Z,41.88
2018-02-20T05:49:10.938Z,42.13
2018-02-20T05:51:38.481Z,42.00
2018-02-20T05:54:06.797Z,43.33
2018-02-20T05:56:34.338Z,46.63
2018-02-20T05:59:02.692Z,46.15
2018-02-20T06:01:30.241Z,39.08
2018-02-20T06:03:57.833Z,45.45
2018-02-20T06:06:25.344Z,41.85
2018-02-20T06:08:52.967Z,45.67
2018-02-20T06:11:20.522Z,40.83
2018-02-20T06:13:48.076Z,41.25
2018-02-20T06:16:15.609Z,39.78
2018-02-20T06:18:43.184Z,42.38
2018-02-20T06:21:10.732Z,38.40
2018-02-20T06:23:38.302Z,40.42
2018-02-20T06:26:05.846Z,36.38
2018-02-20T06:28:33.985Z,34.40
2018-02-20T06:31:01.531Z,33.72
2018-02-20T06:33:29.072Z,36.83
2018-02-20T06:35:56.635Z,35.88
2018-02-20T06:38:24.157Z,36.75
2018-02-20T06:40:51.688Z,36.47
2018-02-20T06:43:19.231Z,36.75
2018-02-20T06:45:46.761Z,65.60
2018-02-20T06:48:15.459Z,61.72
2018-02-20T06:50:43.809Z,36.20
2018-02-20T06:53:11.311Z,34.53
2018-02-20T06:55:39.649Z,33.00
2018-02-20T06:58:07.155Z,33.47
2018-02-20T07:00:35.486Z,31.67
2018-02-20T07:03:03.034Z,32.70
2018-02-20T07:05:30.562Z,32.15
2018-02-20T07:07:58.875Z,32.38
2018-02-20T07:10:26.414Z,30.15
2018-02-20T07:12:54.746Z,31.95
2018-02-20T07:15:22.291Z,31.55
2018-02-20T07:17:49.817Z,38.40
2018-02-20T07:20:17.430Z,30.95
2018-02-20T07:22:45.011Z,28.42
2018-02-20T07:25:12.604Z,28.98
2018-02-20T07:27:40.137Z,30.70
2018-02-20T07:30:07.745Z,32.85
2018-02-20T07:32:35.300Z,32.40
2018-02-20T07:35:02.912Z,29.80
2018-02-20T07:37:30.573Z,32.75
2018-02-20T07:39:58.111Z,30.73
2018-02-20T07:42:25.712Z,30.50
2018-02-20T07:44:53.266Z,31.62
2018-02-20T07:47:20.813Z,34.72
2018-02-20T07:49:49.144Z,30.92
2018-02-20T07:52:16.704Z,34.08
2018-02-20T07:54:44.275Z,30.45
2018-02-20T07:57:11.811Z,31.92
2018-02-20T07:59:39.477Z,29.95
2018-02-20T08:02:07.082Z,27.58
2018-02-20T08:04:34.628Z,32.08
2018-02-20T08:07:02.164Z,30.58
2018-02-20T08:09:30.472Z,30.85
2018-02-20T08:11:58.011Z,31.50
2018-02-20T08:14:26.325Z,30.17
2018-02-20T08:16:54.476Z,28.60
2018-02-20T08:19:22.778Z,29.60
2018-02-20T08:21:50.331Z,28.52
2018-02-20T08:24:18.629Z,28.05
2018-02-20T08:26:46.350Z,31.35
2018-02-20T08:29:13.946Z,30.27
2018-02-20T08:31:41.549Z,27.52
2018-02-20T08:34:09.079Z,28.75
2018-02-20T08:36:36.653Z,29.40
2018-02-20T08:39:04.195Z,28.10
2018-02-20T08:41:32.482Z,28.40
2018-02-20T08:44:00.785Z,25.58
2018-02-20T08:46:28.328Z,30.67
2018-02-20T08:48:56.636Z,27.73
2018-02-20T08:51:24.276Z,28.98
2018-02-20T08:53:51.968Z,26.30
2018-02-20T08:56:19.518Z,29.37
2018-02-20T08:58:47.826Z,34.15
2018-02-20T09:01:15.375Z,29.65
2018-02-20T09:03:42.962Z,29.87
2018-02-20T09:06:10.503Z,32.97
2018-02-20T09:08:38.045Z,32.72
2018-02-20T09:11:05.548Z,28.67
2018-02-20T09:13:33.158Z,30.55
2018-02-20T09:16:00.759Z,30.70
2018-02-20T09:18:29.105Z,33.88
2018-02-20T09:20:56.627Z,31.40
2018-02-20T09:23:24.171Z,33.20
2018-02-20T09:25:52.499Z,36.25
2018-02-20T09:28:20.448Z,29.02
2018-02-20T09:30:47.987Z,32.45
2018-02-20T09:33:16.316Z,30.45
2018-02-20T09:35:44.198Z,28.85
2018-02-20T09:38:11.776Z,34.35
2018-02-20T09:40:39.345Z,30.67
2018-02-20T09:43:06.912Z,31.70
2018-02-20T09:45:34.463Z,30.33
2018-02-20T09:48:02.015Z,30.88
2018-02-20T09:50:29.557Z,30.65
2018-02-20T09:52:57.118Z,30.10
2018-02-20T09:55:24.656Z,28.25
2018-02-20T09:57:52.193Z,36.10
2018-02-20T10:00:19.733Z,28.75
2018-02-20T10:02:47.296Z,33.00
2018-02-20T10:05:15.149Z,27.50
2018-02-20T10:07:42.697Z,29.95
2018-02-20T10:10:10.994Z,26.55
2018-02-20T10:12:38.544Z,29.05
2018-02-20T10:15:06.853Z,32.33
2018-02-20T10:17:34.417Z,28.25
2018-02-20T10:20:01.961Z,29.02
2018-02-20T10:22:30.262Z,30.42
2018-02-20T10:24:57.814Z,29.83
2018-02-20T10:27:26.222Z,30.37
2018-02-20T10:29:53.797Z,28.42
2018-02-20T10:32:21.363Z,30.90
2018-02-20T10:34:48.900Z,30.77
2018-02-20T10:37:16.454Z,29.00
2018-02-20T10:39:44.778Z,30.83
2018-02-20T10:42:12.509Z,30.10
2018-02-20T10:44:41.016Z,31.17
2018-02-20T10:47:08.637Z,29.42
2018-02-20T10:49:36.217Z,31.27
2018-02-20T10:52:03.902Z,29.83
2018-02-20T10:54:32.295Z,28.02
2018-02-20T10:56:59.883Z,28.95
2018-02-20T10:59:27.644Z,26.35
2018-02-20T11:01:55.187Z,28.38
2018-02-20T11:04:23.620Z,28.80
2018-02-20T11:06:51.220Z,25.05
2018-02-20T11:09:18.786Z,28.30
2018-02-20T11:11:46.421Z,27.70
2018-02-20T11:14:14.078Z,29.50
2018-02-20T11:16:41.677Z,28.40
2018-02-20T11:19:09.286Z,26.85
2018-02-20T11:21:36.980Z,29.20
2018-02-20T11:24:04.641Z,27.87
2018-02-20T11:26:32.284Z,30.98
2018-02-20T11:28:59.822Z,30.90
2018-02-20T11:31:27.461Z,26.42
2018-02-20T11:33:55.002Z,29.95
2018-02-20T11:36:22.596Z,29.73
2018-02-20T11:38:50.243Z,27.87
2018-02-20T11:41:17.901Z,29.70
2018-02-20T11:43:45.533Z,26.37
2018-02-20T11:46:13.897Z,26.33
2018-02-20T11:48:41.637Z,26.92
2018-02-20T11:51:09.184Z,25.37
2018-02-20T11:53:36.742Z,26.87
2018-02-20T11:56:04.440Z,27.20
2018-02-20T11:58:32.080Z,26.20
2018-02-20T12:00:59.660Z,26.27
2018-02-20T12:03:27.263Z,23.50
2018-02-20T12:05:54.936Z,28.38
2018-02-20T12:08:22.620Z,24.83
2018-02-20T12:10:50.917Z,25.52
2018-02-20T12:13:18.554Z,26.27
2018-02-20T12:15:46.369Z,26.92
2018-02-20T12:18:13.893Z,25.58
2018-02-20T12:20:41.854Z,25.25
2018-02-20T12:23:09.619Z,23.08
2018-02-20T12:25:37.191Z,26.70
2018-02-20T12:28:04.740Z,27.77
2018-02-20T12:30:32.280Z,27.85
2018-02-20T12:32:59.855Z,24.70
2018-02-20T12:35:27.400Z,25.58
2018-02-20T12:37:54.932Z,27.08
2018-02-20T12:40:23.245Z,25.85
2018-02-20T12:42:50.778Z,26.12
2018-02-20T12:45:18.338Z,25.10
2018-02-20T12:47:45.879Z,25.42
2018-02-20T12:50:13.422Z,26.42
2018-02-20T12:52:41.832Z,25.25
2018-02-20T12:55:09.385Z,27.35
2018-02-20T12:57:36.972Z,27.42
2018-02-20T13:00:04.500Z,24.25
2018-02-20T13:02:32.039Z,27.17
2018-02-20T13:05:00.341Z,37.35
2018-02-20T13:07:27.892Z,29.02
2018-02-20T13:09:56.405Z,25.05
2018-02-20T13:12:23.944Z,25.35
2018-02-20T13:14:51.570Z,23.60
2018-02-20T13:17:19.195Z,22.83
2018-02-20T13:19:46.847Z,22.80
2018-02-20T13:22:15.168Z,21.08
2018-02-20T13:24:42.727Z,21.73
2018-02-20T13:27:10.283Z,22.58
2018-02-20T13:29:37.842Z,23.12
2018-02-20T13:32:05.456Z,25.58
2018-02-20T13:34:33.110Z,25.20
2018-02-20T13:37:00.656Z,24.65
2018-02-20T13:39:28.224Z,23.67
2018-02-20T13:41:55.787Z,22.37
2018-02-20T13:44:23.330Z,21.80
2018-02-20T13:46:51.196Z,25.30
2018-02-20T13:49:18.711Z,22.42
2018-02-20T13:51:46.263Z,20.12
2018-02-20T13:54:13.798Z,21.80
2018-02-20T13:56:41.375Z,20.65
2018-02-20T13:59:08.948Z,21.65
2018-02-20T14:01:36.485Z,21.02
2018-02-20T14:04:04.043Z,21.87
2018-02-20T14:06:32.405Z,22.13
2018-02-20T14:08:59.944Z,23.02
2018-02-20T14:11:27.547Z,20.98
2018-02-20T14:13:55.182Z,18.65
2018-02-20T14:16:22.722Z,20.90
2018-02-20T14:18:50.279Z,19.05
2018-02-20T14:21:17.883Z,22.33
2018-02-20T14:23:45.470Z,20.08
2018-02-20T14:26:13.014Z,20.65
2018-02-20T14:28:40.623Z,20.12
2018-02-20T14:31:08.935Z,18.33
2018-02-20T14:33:36.484Z,21.17
2018-02-20T14:36:04.075Z,23.23
2018-02-20T14:38:31.628Z,22.25
2018-02-20T14:40:59.170Z,21.55
2018-02-20T14:43:26.729Z,21.58
2018-02-20T14:45:55.026Z,24.95
2018-02-20T14:48:22.618Z,22.13
2018-02-20T14:50:50.177Z,20.30
2018-02-20T14:53:17.716Z,19.42
2018-02-20T14:55:45.268Z,21.48
2018-02-20T14:58:13.572Z,20.62
2018-02-20T15:00:41.389Z,23.55
2018-02-20T15:03:08.925Z,19.30
2018-02-20T15:05:36.467Z,22.75
2018-02-20T15:08:03.992Z,22.10
2018-02-20T15:10:31.552Z,22.15
2018-02-20T15:12:59.206Z,22.35
2018-02-20T15:15:26.766Z,23.75
2018-02-20T15:17:54.326Z,22.80
2018-02-20T15:20:21.854Z,20.35
2018-02-20T15:22:50.202Z,21.02
2018-02-20T15:25:18.067Z,23.20
2018-02-20T15:27:45.650Z,25.75
2018-02-20T15:30:13.244Z,26.58
2018-02-20T15:32:40.932Z,22.80
2018-02-20T15:35:08.532Z,22.92
2018-02-20T15:37:37.033Z,43.33
2018-02-20T15:40:04.627Z,45.95
2018-02-20T15:42:32.938Z,37.85
2018-02-20T15:45:00.477Z,30.30
2018-02-20T15:47:28.854Z,25.90
2018-02-20T15:49:57.258Z,24.37
2018-02-20T15:52:24.891Z,22.67
2018-02-20T15:54:52.433Z,20.50
2018-02-20T15:57:20.036Z,22.62
2018-02-20T15:59:47.642Z,24.42
2018-02-20T16:02:15.233Z,22.52
2018-02-20T16:04:42.882Z,21.92
2018-02-20T16:07:10.482Z,23.58
2018-02-20T16:09:38.071Z,23.40
2018-02-20T16:12:06.450Z,26.48
2018-02-20T16:14:34.817Z,23.75
2018-02-20T16:17:02.391Z,25.75
2018-02-20T16:19:30.019Z,23.25
2018-02-20T16:21:57.570Z,25.37
2018-02-20T16:24:25.107Z,24.80
2018-02-20T16:26:53.436Z,21.55
2018-02-20T16:29:20.977Z,22.52
2018-02-20T16:31:48.631Z,22.13
2018-02-20T16:34:16.234Z,22.83
2018-02-20T16:36:43.775Z,23.48
2018-02-20T16:39:11.347Z,21.20
2018-02-20T16:41:38.958Z,20.80
2018-02-20T16:44:06.505Z,23.52
2018-02-20T16:46:34.051Z,20.33
2018-02-20T16:49:01.703Z,24.05
2018-02-20T16:51:29.288Z,25.75
2018-02-20T16:53:56.826Z,23.85
2018-02-20T16:56:25.133Z,26.77
2018-02-20T16:58:52.677Z,28.33
2018-02-20T17:01:20.218Z,32.53
2018-02-20T17:03:48.558Z,38.92
2018-02-20T17:06:16.082Z,32.38
2018-02-20T17:08:43.695Z,30.25
2018-02-20T17:11:11.251Z,30.20
2018-02-20T17:13:38.785Z,29.08
2018-02-20T17:16:06.342Z,26.23
2018-02-20T17:18:33.877Z,24.92
2018-02-20T17:21:01.431Z,28.75
2018-02-20T17:23:28.992Z,45.50
2018-02-20T17:25:56.576Z,23.05
2018-02-20T17:28:24.172Z,22.13
2018-02-20T17:30:52.484Z,22.08
2018-02-20T17:33:20.016Z,22.87
2018-02-20T17:35:48.327Z,24.75
2018-02-20T17:38:15.883Z,25.50
2018-02-20T17:40:43.447Z,22.67
2018-02-20T17:43:11.013Z,21.90
2018-02-20T17:45:38.563Z,25.37
2018-02-20T17:48:06.877Z,25.27
2018-02-20T17:50:34.427Z,23.58
2018-02-20T17:53:02.010Z,24.58
2018-02-20T17:55:29.554Z,31.50
2018-02-20T17:57:57.115Z,37.15
2018-02-20T18:00:24.712Z,27.02
2018-02-20T18:02:52.277Z,31.05
2018-02-20T18:05:19.867Z,27.67
2018-02-20T18:07:47.410Z,34.72
2018-02-20T18:10:15.114Z,40.83
2018-02-20T18:12:42.868Z,36.65
2018-02-20T18:15:10.410Z,33.85
2018-02-20T18:17:37.986Z,33.05
2018-02-20T18:20:05.557Z,30.88
2018-02-20T18:22:33.096Z,33.10
2018-02-20T18:25:00.702Z,32.25
2018-02-20T18:27:28.251Z,35.55
2018-02-20T18:29:55.838Z,34.22
2018-02-20T18:32:23.402Z,34.45
2018-02-20T18:34:50.950Z,33.92
2018-02-20T18:37:18.495Z,35.03
2018-02-20T18:39:46.157Z,30.10
2018-02-20T18:42:13.751Z,32.45
2018-02-20T18:44:41.307Z,34.70
2018-02-20T18:47:09.618Z,35.55
2018-02-20T18:49:37.153Z,32.78
2018-02-20T18:52:04.770Z,36.28
2018-02-20T18:54:33.876Z,38.08
2018-02-20T18:57:01.457Z,34.88
2018-02-20T18:59:29.741Z,36.15
2018-02-20T19:01:57.311Z,33.38
2018-02-20T19:04:24.858Z,40.72
2018-02-20T19:06:53.512Z,36.10
2018-02-20T19:09:21.994Z,37.22
2018-02-20T19:11:49.605Z,34.75
2018-02-20T19:14:17.168Z,34.33
2018-02-20T19:16:45.490Z,36.75
2018-02-20T19:19:13.961Z,34.22
2018-02-20T19:21:42.260Z,34.17
2018-02-20T19:24:09.827Z,33.25
2018-02-20T19:26:37.378Z,38.33
2018-02-20T19:29:04.958Z,37.13
2018-02-20T19:31:32.529Z,34.38
2018-02-20T19:34:00.076Z,36.40
2018-02-20T19:36:27.612Z,36.92
2018-02-20T19:38:55.163Z,35.15
2018-02-20T19:41:27.497Z,39.47
2018-02-20T19:43:55.122Z,37.30
2018-02-20T19:46:23.464Z,38.35
2018-02-20T19:48:51.011Z,45.78
2018-02-20T19:51:18.580Z,37.75
2018-02-20T19:53:46.115Z,37.40
2018-02-20T19:56:14.049Z,35.85
2018-02-20T19:58:41.594Z,38.90
2018-02-20T20:01:09.223Z,40.47
2018-02-20T20:03:36.859Z,36.45
2018-02-20T20:06:05.228Z,40.60
2018-02-20T20:08:33.113Z,42.15
2018-02-20T20:11:01.501Z,40.78
2018-02-20T20:13:29.862Z,40.53
2018-02-20T20:15:57.449Z,41.22
2018-02-20T20:18:25.797Z,41.45
2018-02-20T20:20:53.399Z,40.92
2018-02-20T20:23:21.764Z,41.60
2018-02-20T20:25:49.380Z,43.13
2018-02-20T20:28:16.940Z,51.90
2018-02-20T20:30:44.641Z,47.28
2018-02-20T20:33:12.255Z,47.20
2018-02-20T20:35:40.576Z,43.50
2018-02-20T20:38:08.185Z,45.53
2018-02-20T20:40:35.780Z,49.65
2018-02-20T20:43:04.122Z,48.17
2018-02-20T20:45:31.760Z,54.22
2018-02-20T20:47:59.325Z,54.35
2018-02-20T20:50:26.932Z,65.57
2018-02-20T20:52:54.483Z,59.08
2018-02-20T20:55:22.629Z,50.42
2018-02-20T20:57:50.212Z,55.90
2018-02-20T21:00:17.792Z,57.20
2018-02-20T21:02:45.348Z,56.33
2018-02-20T21:05:12.959Z,55.60
2018-02-20T21:07:40.611Z,52.75
2018-02-20T21:10:08.183Z,55.03
2018-02-20T21:12:36.512Z,58.80
2018-02-20T21:15:04.064Z,56.65
2018-02-20T21:17:31.619Z,52.47
2018-02-20T21:19:59.936Z,50.65
2018-02-20T21:22:27.526Z,54.25
2018-02-20T21:24:55.143Z,54.60
2018-02-20T21:27:22.688Z,59.17
2018-02-20T21:29:50.991Z,56.25
2018-02-20T21:32:18.553Z,61.03
2018-02-20T21:34:46.107Z,50.97
2018-02-20T21:37:14.434Z,56.55
2018-02-20T21:39:41.981Z,58.05
2018-02-20T21:42:09.525Z,60.95
2018-02-20T21:44:37.084Z,59.05
2018-02-20T21:47:05.438Z,57.28
2018-02-20T21:49:32.987Z,66.80
2018-02-20T21:52:00.522Z,64.82
2018-02-20T21:54:28.063Z,58.63
2018-02-20T21:56:56.375Z,59.83
2018-02-20T21:59:23.953Z,63.33
2018-02-20T22:01:51.617Z,63.70
2018-02-20T22:04:19.162Z,63.95
2018-02-20T22:06:46.712Z,62.20
2018-02-20T22:09:15.037Z,57.85
2018-02-20T22:11:42.611Z,62.08
2018-02-20T22:14:10.170Z,60.15
2018-02-20T22:16:37.727Z,60.15
2018-02-20T22:19:05.278Z,58.28
2018-02-20T22:21:32.847Z,53.38
2018-02-20T22:24:00.797Z,55.85
2018-02-20T22:26:28.363Z,54.40
2018-02-20T22:28:56.700Z,59.88
2018-02-20T22:31:24.250Z,54.88
2018-02-20T22:33:51.793Z,63.80
2018-02-20T22:36:19.397Z,57.47
2018-02-20T22:38:47.202Z,58.25
2018-02-20T22:41:14.595Z,57.55
2018-02-20T22:43:42.134Z,53.80
2018-02-20T22:46:10.447Z,60.45
2018-02-20T22:48:38.160Z,62.60
2018-02-20T22:51:05.702Z,59.50
2018-02-20T22:53:33.255Z,57.03
2018-02-20T22:56:00.814Z,64.32
2018-02-20T22:58:28.352Z,56.50
2018-02-20T23:00:56.697Z,60.10
2018-02-20T23:03:24.254Z,60.35
2018-02-20T23:05:51.826Z,53.95
2018-02-20T23:08:19.388Z,58.05
2018-02-20T23:10:47.715Z,57.33
2018-02-20T23:13:16.051Z,59.55
2018-02-20T23:15:43.615Z,54.60
2018-02-20T23:18:11.162Z,55.60
2018-02-20T23:20:38.706Z,58.28
2018-02-20T23:23:06.251Z,59.60
2018-02-20T23:25:34.589Z,53.35
2018-02-20T23:28:02.106Z,58.78
2018-02-20T23:30:30.406Z,58.20
2018-02-20T23:32:57.933Z,57.30
2018-02-20T23:35:25.460Z,57.00
2018-02-20T23:37:53.024Z,54.92
2018-02-20T23:40:20.589Z,56.10
2018-02-20T23:42:48.128Z,53.45
2018-02-20T23:45:15.636Z,59.38
2018-02-20T23:47:43.300Z,57.70
2018-02-20T23:50:10.869Z,56.78
2018-02-20T23:52:38.397Z,54.58
2018-02-20T23:55:05.951Z,52.97
2018-02-20T23:57:33.490Z,57.00
